Time;durP1;ratioP1;P1;durP2;ratioP2;P2;SDS_P1;SDS_P2;PMS_P1;PMS_P2;Temp;Humidity;BMP_temperature;BMP_pressure;BME280_temperature;BME280_humidity;BME280_pressure;Samples;Min_cycle;Max_cycle;Signal;HPM_P1;HPM_P2
2022/06/28 00:01:35;;;;;;;4.33;2.10;;;;;;;;;;5063758;28;20478;-52
2022/06/28 00:04:02;;;;;;;8.50;3.63;;;15.90;99.90;;;;;;5059945;28;20484;-52
2022/06/28 00:06:30;;;;;;;2.20;1.90;;;15.90;99.90;;;;;;5057436;28;21002;-54
2022/06/28 00:08:57;;;;;;;2.33;2.00;;;15.90;99.90;;;;;;5060690;28;20673;-53
2022/06/28 00:11:24;;;;;;;11.50;1.90;;;15.90;99.90;;;;;;5061050;28;20485;-52
2022/06/28 00:13:50;;;;;;;2.50;1.90;;;15.90;99.90;;;;;;5040590;28;20605;-52
2022/06/28 00:16:16;;;;;;;3.40;2.10;;;15.80;99.90;;;;;;5055469;28;20479;-51
2022/06/28 00:18:44;;;;;;;1.97;1.67;;;15.80;99.90;;;;;;5045366;28;21056;-51
2022/06/28 00:21:12;;;;;;;4.07;2.50;;;15.70;99.90;;;;;;5040671;28;20665;-51
2022/06/28 00:23:42;;;;;;;6.43;2.30;;;15.60;99.90;;;;;;5048390;28;20481;-51
2022/06/28 00:26:11;;;;;;;3.40;3.10;;;15.50;99.90;;;;;;5051505;28;20592;-52
2022/06/28 00:28:38;;;;;;;2.20;1.77;;;15.50;99.90;;;;;;5056954;28;21303;-53
2022/06/28 00:31:05;;;;;;;9.17;2.77;;;15.60;99.90;;;;;;5053271;28;20505;-53
2022/06/28 00:33:32;;;;;;;8.77;2.50;;;15.50;99.90;;;;;;5055764;28;20487;-52
2022/06/28 00:35:58;;;;;;;2.63;2.20;;;15.40;99.90;;;;;;5056057;28;20961;-53
2022/06/28 00:38:25;;;;;;;3.03;1.93;;;15.40;99.90;;;;;;5056059;28;20489;-52
2022/06/28 00:40:55;;;;;;;2.50;2.17;;;15.40;99.90;;;;;;5049772;28;20977;-52
2022/06/28 00:43:22;;;;;;;7.30;2.00;;;15.50;99.90;;;;;;5057119;28;21423;-52
2022/06/28 00:45:49;;;;;;;6.27;1.87;;;15.50;99.90;;;;;;5054719;28;20490;-52
2022/06/28 00:48:18;;;;;;;4.30;2.60;;;15.30;99.90;;;;;;5051924;28;21176;-52
2022/06/28 00:50:45;;;;;;;3.97;2.10;;;15.40;99.90;;;;;;5051220;28;20529;-52
2022/06/28 00:53:14;;;;;;;3.70;2.80;;;15.30;99.90;;;;;;5051045;28;20498;-52
2022/06/28 00:55:41;;;;;;;6.53;2.20;;;15.40;99.90;;;;;;5053167;28;20479;-52
2022/06/28 00:58:10;;;;;;;2.27;2.07;;;15.40;99.90;;;;;;5044121;28;20950;-52
2022/06/28 01:00:40;;;;;;;4.53;2.27;;;15.40;99.90;;;;;;5053439;28;20479;-52
2022/06/28 01:03:08;;;;;;;3.47;2.43;;;15.40;99.90;;;;;;5056480;28;21309;-52
2022/06/28 01:05:36;;;;;;;8.13;1.93;;;15.30;99.90;;;;;;5054058;28;20928;-52
2022/06/28 01:08:05;;;;;;;6.20;2.07;;;15.30;99.90;;;;;;5056259;28;20481;-54
2022/06/28 01:10:31;;;;;;;3.63;1.93;;;15.30;99.90;;;;;;5058153;28;20509;-54
2022/06/28 01:12:58;;;;;;;4.27;1.47;;;;;;;;;;5048342;28;21073;-52
2022/06/28 01:15:31;;;;;;;4.23;1.70;;;15.20;99.90;;;;;;5057843;28;21442;-52
2022/06/28 01:18:00;;;;;;;4.07;1.77;;;15.20;99.90;;;;;;5055312;28;20489;-52
2022/06/28 01:20:27;;;;;;;4.00;1.63;;;15.20;99.90;;;;;;5049645;28;20478;-52
2022/06/28 01:22:56;;;;;;;4.40;1.80;;;15.20;99.90;;;;;;5055145;28;20825;-52
2022/06/28 01:25:24;;;;;;;2.03;1.83;;;15.30;99.90;;;;;;5054903;28;20498;-52
2022/06/28 01:27:52;;;;;;;5.97;1.70;;;15.30;99.90;;;;;;5053245;28;21002;-53
2022/06/28 01:30:18;;;;;;;7.30;1.80;;;15.40;99.90;;;;;;5046529;28;20868;-52
2022/06/28 01:32:46;;;;;;;1.80;1.43;;;15.40;99.90;;;;;;5049787;28;20478;-52
2022/06/28 01:35:13;;;;;;;5.93;2.27;;;15.50;99.90;;;;;;5053271;28;20494;-53
2022/06/28 01:37:40;;;;;;;3.17;1.70;;;15.60;99.90;;;;;;5053056;28;20860;-52
2022/06/28 01:40:09;;;;;;;8.80;2.20;;;15.60;99.90;;;;;;5058231;28;21037;-52
2022/06/28 01:42:36;;;;;;;3.70;1.47;;;15.60;99.90;;;;;;5054202;28;20482;-52
2022/06/28 01:45:04;;;;;;;2.13;1.83;;;15.70;99.90;;;;;;5057613;28;20471;-52
2022/06/28 01:47:35;;;;;;;4.90;1.67;;;15.70;99.90;;;;;;5048114;28;20987;-53
2022/06/28 01:50:02;;;;;;;5.23;1.87;;;15.70;99.90;;;;;;5055583;28;20486;-53
2022/06/28 01:52:29;;;;;;;3.47;1.80;;;15.70;99.90;;;;;;5051627;28;20494;-53
2022/06/28 01:54:56;;;;;;;2.37;1.60;;;15.70;99.90;;;;;;5055239;28;20490;-53
2022/06/28 01:57:24;;;;;;;3.77;1.60;;;15.70;99.90;;;;;;5054149;28;21015;-53
2022/06/28 01:59:51;;;;;;;2.07;1.63;;;15.70;99.90;;;;;;5056413;28;20490;-54
2022/06/28 02:02:17;;;;;;;13.53;1.80;;;15.80;99.90;;;;;;5056893;28;21023;-53
2022/06/28 02:04:44;;;;;;;3.97;1.63;;;15.70;99.90;;;;;;5056094;28;20962;-53
2022/06/28 02:07:11;;;;;;;3.90;1.60;;;15.80;99.90;;;;;;5044455;28;20479;-53
2022/06/28 02:09:37;;;;;;;4.87;1.40;;;15.80;99.90;;;;;;5039042;28;20472;-53
2022/06/28 02:12:05;;;;;;;10.70;2.30;;;15.80;99.90;;;;;;5049547;28;20502;-53
2022/06/28 02:14:33;;;;;;;8.33;1.50;;;15.80;99.90;;;;;;5037674;28;20536;-53
2022/06/28 02:17:00;;;;;;;2.63;1.60;;;15.80;99.90;;;;;;5049900;28;20975;-53
2022/06/28 02:19:26;;;;;;;2.20;1.30;;;15.80;99.90;;;;;;5047012;28;20852;-53
2022/06/28 02:21:53;;;;;;;4.57;1.50;;;15.80;99.90;;;;;;5053376;28;21037;-53
2022/06/28 02:24:20;;;;;;;5.70;1.40;;;15.80;99.90;;;;;;5056609;28;20973;-53
2022/06/28 02:26:47;;;;;;;9.83;1.93;;;15.80;99.90;;;;;;5046682;28;20463;-53
2022/06/28 02:29:13;;;;;;;5.77;2.13;;;15.80;99.90;;;;;;5054147;28;20486;-52
2022/06/28 02:31:42;;;;;;;4.97;1.63;;;15.90;99.90;;;;;;5060317;28;25140;-52
2022/06/28 02:40:21;;;;;;;9.73;1.97;;;15.80;99.90;;;;;;5057295;28;20516;-52
2022/06/28 02:42:24;;;;;;;7.07;1.83;;;15.90;99.90;;;;;;5041226;28;20520;-52
2022/06/28 02:44:50;;;;;;;2.33;1.33;;;15.90;99.90;;;;;;5056712;28;20473;-53
2022/06/28 02:47:18;;;;;;;4.20;1.53;;;15.90;99.90;;;;;;5056793;28;20491;-53
2022/06/28 02:49:45;;;;;;;4.13;1.53;;;15.90;99.90;;;;;;5053630;28;20955;-53
2022/06/28 02:52:12;;;;;;;9.93;2.00;;;15.90;99.90;;;;;;5056401;28;21010;-55
2022/06/28 02:54:38;;;;;;;8.20;1.60;;;15.90;99.90;;;;;;5055080;28;20562;-53
2022/06/28 02:57:05;;;;;;;6.03;1.80;;;15.90;99.90;;;;;;5052984;28;20502;-53
2022/06/28 02:59:32;;;;;;;6.13;1.47;;;15.90;99.90;;;;;;5056270;28;20490;-53
2022/06/28 03:01:59;;;;;;;2.93;1.43;;;15.90;99.90;;;;;;5038234;28;20496;-54
2022/06/28 03:04:27;;;;;;;6.30;1.30;;;15.90;99.90;;;;;;5052042;28;20844;-53
2022/06/28 03:06:54;;;;;;;4.33;1.07;;;15.90;99.90;;;;;;5042454;28;21711;-53
2022/06/28 03:09:20;;;;;;;5.40;1.00;;;15.90;99.90;;;;;;5053253;28;20472;-53
2022/06/28 03:11:47;;;;;;;8.87;1.47;;;15.90;99.90;;;;;;5051681;28;20858;-53
2022/06/28 03:14:14;;;;;;;6.03;1.53;;;15.90;99.90;;;;;;5055083;28;20489;-53
2022/06/28 03:16:40;;;;;;;5.13;1.20;;;15.90;99.90;;;;;;5055828;28;20479;-53
2022/06/28 03:19:07;;;;;;;2.07;1.27;;;15.90;99.90;;;;;;5053344;28;20487;-53
2022/06/28 03:21:35;;;;;;;1.70;0.90;;;15.90;99.90;;;;;;5062707;28;20486;-53
2022/06/28 03:24:02;;;;;;;6.10;1.53;;;15.90;99.90;;;;;;5063620;28;20879;-53
2022/06/28 03:26:29;;;;;;;9.60;1.00;;;15.70;99.90;;;;;;5047370;28;20483;-53
2022/06/28 03:28:55;;;;;;;2.77;0.77;;;15.50;99.90;;;;;;5057920;28;20482;-53
2022/06/28 03:31:22;;;;;;;5.10;1.00;;;15.40;99.90;;;;;;5055196;28;20481;-53
2022/06/28 03:33:49;;;;;;;1.67;1.00;;;15.40;99.90;;;;;;5056367;28;20494;-53
2022/06/28 03:36:15;;;;;;;7.20;1.33;;;15.40;99.90;;;;;;5053196;28;21634;-53
2022/06/28 03:38:43;;;;;;;4.10;1.53;;;15.50;99.90;;;;;;5056129;28;20493;-53
2022/06/28 03:41:10;;;;;;;2.90;1.27;;;15.50;99.90;;;;;;5058708;28;20486;-53
2022/06/28 03:43:37;;;;;;;3.83;2.70;;;15.60;99.90;;;;;;5058110;28;20498;-53
2022/06/28 03:46:04;;;;;;;3.33;1.83;;;15.60;99.90;;;;;;5044869;28;20920;-54
2022/06/28 03:48:30;;;;;;;9.93;1.57;;;15.60;99.90;;;;;;5058911;28;20494;-54
2022/06/28 03:50:57;;;;;;;6.10;1.57;;;15.60;99.90;;;;;;5045927;28;20474;-53
2022/06/28 03:53:24;;;;;;;4.40;1.40;;;15.60;99.90;;;;;;5048157;28;20483;-53
2022/06/28 03:55:52;;;;;;;2.27;0.87;;;15.70;99.90;;;;;;5049801;28;20491;-53
2022/06/28 03:58:18;;;;;;;2.43;1.00;;;15.70;99.90;;;;;;5058284;28;21004;-53
2022/06/28 04:00:45;;;;;;;2.93;1.30;;;15.70;99.90;;;;;;5056770;28;20861;-53
2022/06/28 04:03:12;;;;;;;5.20;1.53;;;15.70;99.90;;;;;;5038671;28;20488;-53
2022/06/28 04:05:38;;;;;;;1.80;1.07;;;15.80;99.90;;;;;;5058983;28;20474;-53
2022/06/28 04:08:08;;;;;;;4.20;1.20;;;15.80;99.90;;;;;;5054646;28;20479;-54
2022/06/28 04:10:34;;;;;;;2.80;1.40;;;15.80;99.90;;;;;;5053819;28;20938;-54
2022/06/28 04:13:02;;;;;;;2.43;1.10;;;15.80;99.90;;;;;;5054537;28;21059;-53
2022/06/28 04:15:29;;;;;;;2.83;1.10;;;15.50;99.90;;;;;;5056126;28;21037;-53
2022/06/28 04:17:56;;;;;;;3.37;1.17;;;15.40;99.90;;;;;;5038123;28;20481;-53
2022/06/28 04:20:23;;;;;;;2.00;1.13;;;15.50;99.90;;;;;;5056238;28;20489;-54
2022/06/28 04:22:50;;;;;;;5.30;1.43;;;15.50;99.90;;;;;;5049913;28;21002;-54
2022/06/28 04:25:17;;;;;;;1.80;0.90;;;15.60;99.90;;;;;;5053227;28;20499;-54
2022/06/28 04:27:44;;;;;;;6.13;1.10;;;15.60;99.90;;;;;;5045969;28;20475;-54
2022/06/28 04:30:13;;;;;;;3.33;1.10;;;15.70;99.90;;;;;;5053065;28;20481;-54
2022/06/28 04:32:40;;;;;;;6.73;1.17;;;15.90;99.90;;;;;;5046858;28;20474;-54
2022/06/28 04:35:08;;;;;;;2.10;1.43;;;15.80;99.90;;;;;;5053210;28;20490;-53
2022/06/28 04:37:35;;;;;;;1.90;1.00;;;15.90;99.90;;;;;;5046692;28;20474;-54
2022/06/28 04:40:01;;;;;;;2.40;1.13;;;16.00;99.90;;;;;;5055138;28;20484;-54
2022/06/28 04:42:28;;;;;;;1.80;1.10;;;16.10;99.90;;;;;;5057142;28;20479;-54
2022/06/28 04:44:55;;;;;;;5.30;0.90;;;16.10;99.90;;;;;;5057354;28;20482;-54
2022/06/28 04:47:23;;;;;;;6.70;1.10;;;16.20;99.90;;;;;;5057635;28;21015;-54
2022/06/28 04:49:50;;;;;;;5.40;1.33;;;16.30;99.90;;;;;;5052570;28;20474;-54
2022/06/28 04:52:16;;;;;;;5.20;0.93;;;16.30;99.90;;;;;;5051147;28;20483;-54
2022/06/28 04:54:43;;;;;;;4.20;1.10;;;16.30;99.90;;;;;;5054844;28;21054;-54
2022/06/28 04:57:10;;;;;;;8.23;1.50;;;16.40;99.90;;;;;;5041633;28;21022;-54
2022/06/28 04:59:36;;;;;;;2.73;1.23;;;16.40;99.90;;;;;;5056331;28;20930;-54
2022/06/28 05:02:03;;;;;;;4.27;1.10;;;16.40;99.90;;;;;;5057451;28;20475;-54
2022/06/28 05:04:31;;;;;;;6.07;1.20;;;16.50;99.90;;;;;;5058527;28;20515;-54
2022/06/28 05:06:58;;;;;;;2.93;1.47;;;16.50;99.90;;;;;;5057994;28;20488;-54
2022/06/28 05:09:25;;;;;;;12.17;1.30;;;16.50;99.90;;;;;;5055200;28;20486;-54
2022/06/28 05:11:51;;;;;;;5.90;1.23;;;16.50;99.90;;;;;;5055633;28;20479;-54
2022/06/28 05:14:18;;;;;;;1.80;1.03;;;16.60;99.90;;;;;;5058719;28;20482;-54
2022/06/28 05:16:45;;;;;;;2.47;1.20;;;16.60;99.90;;;;;;5054590;28;20490;-55
2022/06/28 05:19:12;;;;;;;5.60;1.73;;;16.60;99.90;;;;;;5059114;28;20560;-54
2022/06/28 05:21:40;;;;;;;12.80;1.57;;;16.60;99.90;;;;;;5057973;28;20491;-54
2022/06/28 05:24:07;;;;;;;5.00;1.80;;;16.70;99.90;;;;;;5058212;28;20483;-54
2022/06/28 05:26:34;;;;;;;2.70;1.33;;;16.70;99.90;;;;;;5052432;28;20502;-54
2022/06/28 05:29:01;;;;;;;6.63;2.00;;;16.80;99.90;;;;;;5055723;28;20507;-54
2022/06/28 05:31:28;;;;;;;1.83;1.20;;;16.80;99.90;;;;;;5054156;28;21052;-54
2022/06/28 05:33:55;;;;;;;3.30;1.23;;;17.00;99.90;;;;;;5051934;28;20483;-54
2022/06/28 05:36:22;;;;;;;6.70;1.80;;;17.00;99.90;;;;;;5055632;28;20565;-54
2022/06/28 05:38:50;;;;;;;2.43;1.30;;;17.10;99.90;;;;;;5058238;28;20842;-54
2022/06/28 05:41:17;;;;;;;2.63;2.03;;;17.30;99.90;;;;;;5053772;28;20494;-55
2022/06/28 05:43:43;;;;;;;5.23;2.50;;;17.50;99.90;;;;;;5049184;28;21015;-54
2022/06/28 05:46:10;;;;;;;3.30;2.20;;;17.50;99.90;;;;;;5055254;28;20493;-54
2022/06/28 05:48:37;;;;;;;2.60;1.53;;;17.60;99.90;;;;;;5050119;28;20485;-55
2022/06/28 05:51:04;;;;;;;2.47;2.27;;;17.60;99.90;;;;;;5049491;28;21023;-54
2022/06/28 05:53:31;;;;;;;3.20;2.03;;;17.70;99.90;;;;;;5057228;28;20479;-55
2022/06/28 05:55:59;;;;;;;4.27;2.13;;;17.90;99.90;;;;;;5050997;28;20486;-54
2022/06/28 05:58:26;;;;;;;4.10;2.40;;;17.90;99.90;;;;;;5056711;28;20486;-55
2022/06/28 06:00:52;;;;;;;2.60;2.30;;;18.00;99.90;;;;;;5059508;28;20828;-55
2022/06/28 06:03:19;;;;;;;3.20;2.20;;;18.20;99.90;;;;;;5053375;28;20463;-54
2022/06/28 06:05:46;;;;;;;2.40;2.20;;;18.30;99.90;;;;;;5060041;28;20487;-54
2022/06/28 06:08:13;;;;;;;2.67;2.00;;;18.30;99.90;;;;;;5062389;28;20479;-54
2022/06/28 06:10:39;;;;;;;2.50;2.20;;;18.40;99.90;;;;;;5059092;28;20486;-54
2022/06/28 06:13:07;;;;;;;2.37;2.10;;;18.50;99.90;;;;;;5045670;28;21014;-54
2022/06/28 06:15:34;;;;;;;5.53;3.10;;;18.50;99.90;;;;;;5064785;28;20482;-54
2022/06/28 06:18:01;;;;;;;2.77;1.93;;;18.60;99.90;;;;;;5047507;28;20994;-54
2022/06/28 06:20:28;;;;;;;2.47;2.27;;;18.60;99.90;;;;;;5058404;28;20490;-55
2022/06/28 06:22:55;;;;;;;4.20;2.70;;;18.60;99.90;;;;;;5058730;28;20475;-55
2022/06/28 06:25:21;;;;;;;2.63;2.43;;;18.80;99.90;;;;;;5058470;28;20479;-54
2022/06/28 06:27:48;;;;;;;4.80;2.30;;;18.80;99.90;;;;;;5055090;28;20478;-54
2022/06/28 06:30:16;;;;;;;2.80;2.20;;;18.80;99.90;;;;;;5054325;28;21989;-54
2022/06/28 06:32:43;;;;;;;2.83;2.53;;;19.00;99.90;;;;;;5062551;28;20499;-54
2022/06/28 06:35:10;;;;;;;2.43;2.23;;;19.10;99.90;;;;;;5057904;28;20482;-55
2022/06/28 06:37:37;;;;;;;2.63;2.43;;;19.20;99.90;;;;;;5056290;28;20983;-54
2022/06/28 06:40:04;;;;;;;2.30;2.03;;;19.40;99.90;;;;;;5046973;28;20481;-54
2022/06/28 06:42:31;;;;;;;2.57;2.37;;;19.50;99.90;;;;;;5066279;28;20479;-55
2022/06/28 06:44:58;;;;;;;2.60;2.10;;;19.50;99.90;;;;;;5055950;28;20502;-54
2022/06/28 06:47:26;;;;;;;1.90;1.60;;;19.70;99.90;;;;;;5034919;28;20490;-55
2022/06/28 06:49:53;;;;;;;2.60;1.87;;;19.80;99.90;;;;;;5027883;28;20482;-54
2022/06/28 06:52:19;;;;;;;5.00;2.30;;;20.00;99.90;;;;;;5061585;28;20478;-54
2022/06/28 06:54:46;;;;;;;3.83;2.47;;;20.10;99.90;;;;;;5058249;28;20487;-55
2022/06/28 06:57:13;;;;;;;2.33;2.13;;;20.20;99.90;;;;;;5054109;28;20855;-57
2022/06/28 06:59:40;;;;;;;6.00;2.70;;;20.40;99.90;;;;;;5066348;28;20508;-55
2022/06/28 07:02:08;;;;;;;4.17;2.17;;;20.50;99.90;;;;;;5054413;28;21029;-55
2022/06/28 07:04:36;;;;;;;3.70;2.60;;;20.80;99.90;;;;;;5058021;28;20478;-55
2022/06/28 07:07:03;;;;;;;2.70;2.50;;;20.80;99.90;;;;;;5051093;28;20470;-56
2022/06/28 07:09:29;;;;;;;2.50;2.17;;;21.00;99.90;;;;;;5057955;28;20895;-55
2022/06/28 07:11:56;;;;;;;2.10;1.83;;;21.30;99.90;;;;;;5058206;28;20478;-55
2022/06/28 07:14:23;;;;;;;3.13;1.83;;;21.50;99.10;;;;;;5058189;28;20482;-55
2022/06/28 07:16:49;;;;;;;4.33;2.07;;;21.50;99.30;;;;;;5054420;28;20467;-55
2022/06/28 07:19:17;;;;;;;3.03;1.53;;;21.70;98.00;;;;;;5057196;28;20477;-55
2022/06/28 07:21:45;;;;;;;4.53;2.00;;;21.90;98.40;;;;;;5052406;28;20562;-55
2022/06/28 07:24:13;;;;;;;2.70;2.10;;;22.00;97.90;;;;;;5060836;28;20987;-55
2022/06/28 07:26:40;;;;;;;3.20;1.90;;;22.10;98.10;;;;;;5056956;28;20495;-55
2022/06/28 07:29:06;;;;;;;5.77;2.60;;;22.30;97.90;;;;;;5052085;28;20489;-54
2022/06/28 07:31:33;;;;;;;3.20;1.80;;;22.30;98.10;;;;;;5057350;28;20486;-54
2022/06/28 07:34:00;;;;;;;2.83;2.23;;;22.60;98.00;;;;;;5058427;28;20487;-54
2022/06/28 07:36:28;;;;;;;12.50;2.47;;;22.80;97.40;;;;;;5052036;28;20927;-53
2022/06/28 07:38:56;;;;;;;8.17;2.20;;;22.90;97.90;;;;;;5050151;28;20824;-53
2022/06/28 07:41:24;;;;;;;6.83;3.50;;;23.10;97.20;;;;;;5052692;28;20496;-53
2022/06/28 07:43:50;;;;;;;5.93;2.97;;;23.20;96.80;;;;;;5044102;28;20603;-53
2022/06/28 07:46:18;;;;;;;3.03;2.30;;;23.30;95.50;;;;;;5054421;28;20485;-52
2022/06/28 07:48:45;;;;;;;2.87;2.20;;;23.30;95.20;;;;;;5057693;28;20593;-53
2022/06/28 07:53:57;;;;;;;7.10;5.37;;;23.50;94.70;;;;;;5059715;28;21002;-53
2022/06/28 07:56:24;;;;;;;5.73;2.47;;;23.60;94.00;;;;;;5053788;28;20505;-53
2022/06/28 07:58:51;;;;;;;14.80;2.20;;;23.70;92.60;;;;;;5055855;28;20485;-53
2022/06/28 08:01:18;;;;;;;2.77;1.97;;;23.70;90.90;;;;;;5057413;28;20474;-53
2022/06/28 08:03:44;;;;;;;2.00;1.40;;;23.60;90.70;;;;;;5060364;28;21294;-54
2022/06/28 08:06:11;;;;;;;3.40;1.80;;;23.60;91.00;;;;;;5052141;28;20513;-53
2022/06/28 08:08:38;;;;;;;3.93;1.50;;;23.70;91.50;;;;;;5056061;28;21044;-54
2022/06/28 08:11:06;;;;;;;2.63;1.53;;;23.70;91.10;;;;;;5055955;28;20460;-53
2022/06/28 08:13:33;;;;;;;2.83;1.40;;;23.80;92.40;;;;;;5032104;28;20485;-52
2022/06/28 08:16:01;;;;;;;3.70;1.60;;;23.90;90.80;;;;;;5052541;28;20490;-53
2022/06/28 08:18:28;;;;;;;3.00;1.70;;;24.00;90.70;;;;;;5056853;28;20477;-52
2022/06/28 08:20:55;;;;;;;2.13;1.47;;;24.10;88.60;;;;;;5057972;28;21041;-52
2022/06/28 08:23:22;;;;;;;2.73;1.63;;;24.10;88.80;;;;;;5056961;28;20501;-52
2022/06/28 08:25:48;;;;;;;2.10;1.43;;;24.20;89.20;;;;;;5052593;28;20468;-51
2022/06/28 08:28:17;;;;;;;2.23;1.47;;;24.30;88.50;;;;;;5054757;28;20993;-52
2022/06/28 08:30:44;;;;;;;1.80;1.10;;;24.40;89.50;;;;;;5055990;28;20475;-52
2022/06/28 08:33:11;;;;;;;3.70;2.00;;;24.50;87.70;;;;;;5050876;28;20526;-52
2022/06/28 08:35:38;;;;;;;1.90;1.20;;;24.50;87.80;;;;;;5059430;28;21240;-54
2022/06/28 08:38:05;;;;;;;4.80;1.77;;;24.70;85.10;;;;;;5050827;28;20452;-51
2022/06/28 08:40:32;;;;;;;4.93;1.63;;;24.80;86.00;;;;;;5058254;28;20517;-52
2022/06/28 08:43:00;;;;;;;1.90;1.60;;;24.80;85.90;;;;;;5054714;28;20454;-51
2022/06/28 08:45:29;;;;;;;2.43;1.30;;;24.90;85.80;;;;;;5055621;28;20935;-51
2022/06/28 08:47:57;;;;;;;2.37;1.23;;;24.90;87.40;;;;;;5051775;28;21107;-51
2022/06/28 08:50:31;;;;;;;3.17;1.40;;;25.10;86.50;;;;;;5054588;28;20495;-52
2022/06/28 08:53:01;;;;;;;1.90;1.27;;;25.40;85.10;;;;;;5052792;28;20482;-51
2022/06/28 08:55:30;;;;;;;1.80;1.00;;;25.40;84.60;;;;;;5045872;28;20923;-50
2022/06/28 08:57:58;;;;;;;2.37;1.73;;;25.40;85.10;;;;;;5044357;28;20515;-51
2022/06/28 09:00:25;;;;;;;10.27;1.70;;;25.60;82.80;;;;;;5056681;28;20466;-53
2022/06/28 09:02:54;;;;;;;2.00;1.40;;;25.60;84.20;;;;;;5056039;28;20457;-51
2022/06/28 09:05:22;;;;;;;6.93;1.67;;;25.70;84.00;;;;;;5051201;28;20982;-51
2022/06/28 09:07:50;;;;;;;1.90;1.30;;;25.70;84.50;;;;;;5028224;28;20462;-52
2022/06/28 09:10:16;;;;;;;2.57;1.33;;;25.80;84.50;;;;;;5049413;28;20642;-53
2022/06/28 09:12:43;;;;;;;2.80;1.30;;;25.90;83.10;;;;;;5058861;28;21307;-52
2022/06/28 09:15:10;;;;;;;4.37;1.30;;;25.80;76.30;;;;;;5059360;28;20518;-51
2022/06/28 09:17:38;;;;;;;2.30;1.43;;;25.70;77.10;;;;;;5055433;28;20453;-51
2022/06/28 09:20:09;;;;;;;4.13;1.47;;;25.80;83.30;;;;;;5060535;28;20529;-50
2022/06/28 09:22:38;;;;;;;7.20;1.40;;;25.90;82.00;;;;;;5056262;28;20881;-51
2022/06/28 09:25:08;;;;;;;3.47;1.70;;;26.00;82.40;;;;;;5060113;28;20934;-49
2022/06/28 09:27:39;;;;;;;2.90;1.20;;;26.20;84.40;;;;;;5053665;28;20984;-50
2022/06/28 09:30:08;;;;;;;2.17;1.20;;;26.40;80.20;;;;;;5059522;28;20869;-51
2022/06/28 09:32:36;;;;;;;2.50;1.30;;;26.40;81.20;;;;;;5062574;28;20454;-49
2022/06/28 09:35:07;;;;;;;4.20;2.10;;;26.50;80.50;;;;;;5062473;28;20817;-50
2022/06/28 09:37:41;;;;;;;1.73;0.90;;;26.50;80.90;;;;;;5051452;28;20485;-51
2022/06/28 09:40:16;;;;;;;2.00;1.40;;;26.70;80.50;;;;;;5060198;28;20861;-50
2022/06/28 09:42:44;;;;;;;3.20;1.30;;;26.70;78.10;;;;;;5032386;28;20969;-50
2022/06/28 09:45:12;;;;;;;4.20;1.53;;;26.70;76.00;;;;;;5059041;28;20495;-50
2022/06/28 09:47:43;;;;;;;1.80;0.90;;;26.90;78.80;;;;;;5047803;28;20806;-57
2022/06/28 09:50:13;;;;;;;1.90;1.40;;;26.90;77.90;;;;;;5054054;28;20568;-49
2022/06/28 09:52:45;;;;;;;1.80;1.00;;;27.00;78.40;;;;;;5051485;28;20528;-50
2022/06/28 09:55:14;;;;;;;2.97;1.30;;;27.10;77.50;;;;;;5058707;28;20829;-50
2022/06/28 09:57:43;;;;;;;2.57;1.30;;;27.20;77.20;;;;;;5054142;28;20458;-52
2022/06/28 10:00:10;;;;;;;2.50;1.30;;;26.60;71.90;;;;;;5057983;28;21046;-51
2022/06/28 10:02:37;;;;;;;1.80;1.07;;;26.40;70.50;;;;;;5059149;28;20486;-53
2022/06/28 10:05:05;;;;;;;4.73;1.30;;;26.00;67.10;;;;;;5059138;28;20463;-52
2022/06/28 10:07:34;;;;;;;4.83;1.50;;;26.10;74.80;;;;;;5044762;28;20549;-52
2022/06/28 10:10:01;;;;;;;2.10;1.47;;;26.20;75.80;;;;;;5040667;28;20453;-54
2022/06/28 10:15:18;;;;;;;2.23;1.47;;;25.90;69.90;;;;;;5064883;28;20447;-51
2022/06/28 10:17:50;;;;;;;3.53;1.60;;;26.00;73.90;;;;;;5028343;28;20484;-50
2022/06/28 10:20:21;;;;;;;4.20;1.40;;;26.30;77.00;;;;;;5053445;28;20506;-50
2022/06/28 10:22:49;;;;;;;1.87;1.37;;;26.40;72.70;;;;;;5058637;28;20449;-51
2022/06/28 10:25:17;;;;;;;2.20;1.40;;;26.80;75.20;;;;;;5032711;28;21934;-51
2022/06/28 10:27:47;;;;;;;2.20;1.60;;;26.80;72.90;;;;;;5054915;28;20456;-51
2022/06/28 10:30:34;;;;;;;2.53;1.10;;;27.00;73.10;;;;;;5047444;28;20469;-51
2022/06/28 10:33:06;;;;;;;2.20;1.03;;;26.90;70.20;;;;;;5058270;28;20470;-51
2022/06/28 10:36:13;;;;;;;3.33;1.30;;;27.20;75.30;;;;;;5057536;28;20511;-50
2022/06/28 10:39:16;;;;;;;2.77;1.50;;;27.10;71.50;;;;;;5062015;28;20863;-52
2022/06/28 10:41:44;;;;;;;2.33;1.73;;;27.10;72.50;;;;;;5058706;28;20477;-52
2022/06/28 10:44:13;;;;;;;2.47;1.40;;;26.70;72.50;;;;;;5054325;28;20464;-52
2022/06/28 10:46:41;;;;;;;2.73;1.40;;;26.40;72.10;;;;;;5049170;28;20457;-53
2022/06/28 10:49:10;;;;;;;2.30;1.63;;;26.40;76.80;;;;;;5059580;28;20855;-51
2022/06/28 10:51:42;;;;;;;3.17;1.20;;;26.70;72.80;;;;;;5052298;28;20466;-55
2022/06/28 10:54:10;;;;;;;3.00;1.30;;;26.70;72.30;;;;;;5047586;28;20495;-52
2022/06/28 10:56:41;;;;;;;3.33;1.30;;;27.20;76.50;;;;;;5052452;28;20525;-56
2022/06/28 10:59:09;;;;;;;10.30;1.77;;;27.20;73.40;;;;;;5043931;28;20783;-52
2022/06/28 11:01:56;;;;;;;4.67;1.70;;;27.20;70.90;;;;;;5057572;28;20446;-53
2022/06/28 11:04:25;;;;;;;3.20;1.83;;;27.10;71.30;;;;;;5048472;28;20447;-51
2022/06/28 11:06:54;;;;;;;1.87;1.30;;;27.10;73.70;;;;;;5024144;28;20479;-51
2022/06/28 11:09:45;;;;;;;2.13;1.50;;;27.40;72.80;;;;;;5052694;28;20994;-52
2022/06/28 11:12:14;;;;;;;2.83;2.10;;;27.50;74.70;;;;;;5044721;28;20451;-52
2022/06/28 11:14:52;;;;;;;3.27;1.57;;;27.60;73.00;;;;;;5057030;28;20475;-53
2022/06/28 11:17:22;;;;;;;1.80;1.07;;;27.70;76.10;;;;;;5049232;28;20478;-52
2022/06/28 11:19:54;;;;;;;2.10;1.13;;;27.40;70.60;;;;;;5048553;28;20445;-52
2022/06/28 11:22:23;;;;;;;2.73;1.30;;;27.50;71.70;;;;;;5052976;28;20532;-52
2022/06/28 11:24:50;;;;;;;3.30;1.50;;;27.60;70.00;;;;;;5048027;28;20452;-52
2022/06/28 11:27:21;;;;;;;4.77;1.90;;;27.80;72.00;;;;;;5043442;28;20482;-54
2022/06/28 11:29:49;;;;;;;2.77;1.47;;;27.90;73.70;;;;;;5051664;28;20474;-52
2022/06/28 11:32:18;;;;;;;3.20;1.47;;;27.90;72.80;;;;;;5057097;28;20821;-51
2022/06/28 11:34:52;;;;;;;2.67;1.57;;;28.00;72.80;;;;;;5056991;28;20445;-52
2022/06/28 11:37:19;;;;;;;1.90;1.67;;;28.10;71.70;;;;;;5053759;28;20992;-52
2022/06/28 11:39:46;;;;;;;3.17;1.60;;;28.20;73.20;;;;;;5055874;28;20482;-52
2022/06/28 11:42:15;;;;;;;2.30;1.30;;;28.50;73.10;;;;;;5057110;28;20445;-53
2022/06/28 11:44:43;;;;;;;2.77;1.40;;;28.40;71.60;;;;;;5045286;28;20496;-51
2022/06/28 11:47:10;;;;;;;2.80;1.53;;;28.60;72.60;;;;;;5052440;28;20461;-51
2022/06/28 11:49:37;;;;;;;2.33;1.63;;;28.70;70.90;;;;;;5046113;28;20488;-52
2022/06/28 11:52:04;;;;;;;2.00;1.17;;;28.80;69.80;;;;;;5055373;28;20825;-51
2022/06/28 11:54:31;;;;;;;3.37;1.87;;;28.70;68.70;;;;;;5046629;28;20487;-52
2022/06/28 11:56:58;;;;;;;1.97;1.17;;;28.80;70.50;;;;;;5047820;28;20463;-52
2022/06/28 11:59:56;;;;;;;2.27;1.27;;;28.50;67.00;;;;;;5057023;28;20476;-55
2022/06/28 12:02:44;;;;;;;2.90;1.30;;;28.50;65.60;;;;;;5057584;28;20441;-51
2022/06/28 12:05:12;;;;;;;6.63;1.73;;;28.60;69.30;;;;;;5053520;28;20490;-51
2022/06/28 12:07:40;;;;;;;2.50;1.27;;;28.60;69.50;;;;;;5050990;28;20475;-52
2022/06/28 12:10:19;;;;;;;1.90;1.23;;;28.80;68.70;;;;;;5049247;28;20478;-51
2022/06/28 12:12:46;;;;;;;2.27;1.67;;;29.00;67.10;;;;;;5059791;28;20868;-52
2022/06/28 12:15:14;;;;;;;1.97;1.20;;;29.00;67.50;;;;;;5058877;28;20456;-52
2022/06/28 12:17:46;;;;;;;2.43;1.10;;;29.00;67.80;;;;;;5058138;28;20440;-51
2022/06/28 12:20:14;;;;;;;3.40;1.10;;;29.00;68.10;;;;;;5056841;28;20511;-52
2022/06/28 12:22:41;;;;;;;2.10;1.33;;;29.10;67.70;;;;;;5060676;28;20460;-52
2022/06/28 12:25:12;;;;;;;2.77;1.43;;;29.00;65.10;;;;;;5047663;28;20443;-52
2022/06/28 12:27:39;;;;;;;2.43;0.90;;;28.80;66.60;;;;;;5048355;28;20471;-53
2022/06/28 12:30:08;;;;;;;2.63;1.57;;;28.50;61.00;;;;;;5053758;28;21025;-52
2022/06/28 12:32:36;;;;;;;5.63;1.67;;;28.60;68.00;;;;;;5057959;28;20487;-52
2022/06/28 12:35:05;;;;;;;1.90;1.37;;;28.70;67.90;;;;;;5057672;28;20479;-52
2022/06/28 12:37:33;;;;;;;3.73;1.03;;;28.30;61.10;;;;;;5054306;28;21082;-51
2022/06/28 12:40:01;;;;;;;1.90;1.40;;;28.50;66.40;;;;;;5054006;28;20457;-51
2022/06/28 12:42:27;;;;;;;2.40;1.30;;;28.70;67.20;;;;;;5061491;28;20453;-50
2022/06/28 12:44:54;;;;;;;3.80;1.37;;;28.90;65.70;;;;;;5057485;28;20445;-52
2022/06/28 12:47:21;;;;;;;4.17;1.23;;;29.10;69.00;;;;;;5055082;28;20515;-53
2022/06/28 12:49:49;;;;;;;1.90;1.10;;;28.80;62.60;;;;;;5064462;28;20995;-52
2022/06/28 12:52:16;;;;;;;2.20;1.20;;;28.80;64.20;;;;;;5056329;28;21026;-52
2022/06/28 12:54:42;;;;;;;4.50;1.40;;;28.70;66.60;;;;;;5057167;28;20462;-52
2022/06/28 12:57:09;;;;;;;3.50;1.40;;;28.80;65.10;;;;;;5055415;28;20490;-52
2022/06/28 12:59:36;;;;;;;2.33;1.17;;;28.80;68.20;;;;;;5059169;28;20851;-51
2022/06/28 13:02:03;;;;;;;2.50;1.00;;;29.30;62.80;;;;;;5055918;28;20788;-51
2022/06/28 13:04:30;;;;;;;2.53;1.20;;;29.30;65.40;;;;;;5057161;28;20485;-52